sensor_id;sensor_type;location;lat;lon;timestamp;P1;P2;P0
56360;PMS7003;42611;51.132;13.588;2023-07-13T00:00:02;3.4;3.4;
56360;PMS7003;42611;51.132;13.588;2023-07-13T00:05:01;3.8;3.8;
56360;PMS7003;42611;51.132;13.588;2023-07-13T00:10:03;3.5;3.5;
56360;PMS7003;42611;51.132;13.588;2023-07-13T00:15:06;3.4;3.3;
56360;PMS7003;42611;51.132;13.588;2023-07-13T00:20:01;3.6;3.5;
56360;PMS7003;42611;51.132;13.588;2023-07-13T00:25:01;3.7;3.6;
56360;PMS7003;42611;51.132;13.588;2023-07-13T00:30:01;3.7;3.4;
56360;PMS7003;42611;51.132;13.588;2023-07-13T00:35:01;3.4;3.2;
56360;PMS7003;42611;51.132;13.588;2023-07-13T00:40:02;3.5;3.2;
56360;PMS7003;42611;51.132;13.588;2023-07-13T00:50:01;4.1;3.6;
56360;PMS7003;42611;51.132;13.588;2023-07-13T00:55:02;4.4;4.2;
56360;PMS7003;42611;51.132;13.588;2023-07-13T01:00:04;4.4;4.2;
56360;PMS7003;42611;51.132;13.588;2023-07-13T01:05:01;4.5;4.3;
56360;PMS7003;42611;51.132;13.588;2023-07-13T01:10:01;4.6;4.4;
56360;PMS7003;42611;51.132;13.588;2023-07-13T01:15:02;4.3;4.3;
56360;PMS7003;42611;51.132;13.588;2023-07-13T01:20:01;4.5;4.3;
56360;PMS7003;42611;51.132;13.588;2023-07-13T01:25:01;4.9;4.7;
56360;PMS7003;42611;51.132;13.588;2023-07-13T01:30:02;5.2;4.8;
56360;PMS7003;42611;51.132;13.588;2023-07-13T01:35:01;5.4;5.0;
56360;PMS7003;42611;51.132;13.588;2023-07-13T01:40:03;5.0;4.6;
56360;PMS7003;42611;51.132;13.588;2023-07-13T01:45:01;4.7;4.5;
56360;PMS7003;42611;51.132;13.588;2023-07-13T01:50:03;4.3;4.1;
56360;PMS7003;42611;51.132;13.588;2023-07-13T01:55:01;4.4;4.2;
56360;PMS7003;42611;51.132;13.588;2023-07-13T02:00:04;4.5;4.1;
56360;PMS7003;42611;51.132;13.588;2023-07-13T02:05:01;4.9;4.5;
56360;PMS7003;42611;51.132;13.588;2023-07-13T02:10:01;5.8;5.0;
56360;PMS7003;42611;51.132;13.588;2023-07-13T02:15:02;6.0;5.2;
56360;PMS7003;42611;51.132;13.588;2023-07-13T02:25:01;6.2;5.8;
56360;PMS7003;42611;51.132;13.588;2023-07-13T02:30:02;6.7;6.2;
56360;PMS7003;42611;51.132;13.588;2023-07-13T02:35:01;6.1;5.8;
56360;PMS7003;42611;51.132;13.588;2023-07-13T02:40:01;6.3;6.0;
56360;PMS7003;42611;51.132;13.588;2023-07-13T02:45:02;6.7;6.4;
56360;PMS7003;42611;51.132;13.588;2023-07-13T02:50:02;6.4;6.2;
56360;PMS7003;42611;51.132;13.588;2023-07-13T02:55:01;6.2;5.7;
56360;PMS7003;42611;51.132;13.588;2023-07-13T03:00:03;5.7;5.4;
56360;PMS7003;42611;51.132;13.588;2023-07-13T03:05:01;5.9;5.6;
56360;PMS7003;42611;51.132;13.588;2023-07-13T03:10:01;5.7;5.2;
56360;PMS7003;42611;51.132;13.588;2023-07-13T03:15:01;6.3;5.7;
56360;PMS7003;42611;51.132;13.588;2023-07-13T03:20:02;6.6;6.2;
56360;PMS7003;42611;51.132;13.588;2023-07-13T03:25:01;7.3;7.0;
56360;PMS7003;42611;51.132;13.588;2023-07-13T03:30:02;8.0;7.5;
56360;PMS7003;42611;51.132;13.588;2023-07-13T03:35:01;8.1;7.7;
56360;PMS7003;42611;51.132;13.588;2023-07-13T03:40:06;7.9;7.6;
56360;PMS7003;42611;51.132;13.588;2023-07-13T03:45:02;7.9;7.6;
56360;PMS7003;42611;51.132;13.588;2023-07-13T03:50:01;7.5;7.3;
56360;PMS7003;42611;51.132;13.588;2023-07-13T03:55:02;7.2;7.1;
56360;PMS7003;42611;51.132;13.588;2023-07-13T04:00:02;7.4;7.4;
56360;PMS7003;42611;51.132;13.588;2023-07-13T04:10:01;7.3;7.3;
56360;PMS7003;42611;51.132;13.588;2023-07-13T04:15:01;7.3;7.2;
56360;PMS7003;42611;51.132;13.588;2023-07-13T04:20:02;6.8;6.7;
56360;PMS7003;42611;51.132;13.588;2023-07-13T04:25:01;7.3;6.8;
56360;PMS7003;42611;51.132;13.588;2023-07-13T04:30:02;7.3;6.9;
56360;PMS7003;42611;51.132;13.588;2023-07-13T04:35:01;7.4;6.9;
56360;PMS7003;42611;51.132;13.588;2023-07-13T04:40:01;7.8;7.4;
56360;PMS7003;42611;51.132;13.588;2023-07-13T04:45:02;8.2;7.8;
56360;PMS7003;42611;51.132;13.588;2023-07-13T04:50:01;7.6;7.6;
56360;PMS7003;42611;51.132;13.588;2023-07-13T05:00:02;8.1;7.5;
56360;PMS7003;42611;51.132;13.588;2023-07-13T05:05:02;8.2;7.6;
56360;PMS7003;42611;51.132;13.588;2023-07-13T05:10:01;8.8;8.2;
56360;PMS7003;42611;51.132;13.588;2023-07-13T05:15:02;8.8;8.1;
56360;PMS7003;42611;51.132;13.588;2023-07-13T05:20:02;8.9;8.3;
56360;PMS7003;42611;51.132;13.588;2023-07-13T05:25:02;8.6;8.6;
56360;PMS7003;42611;51.132;13.588;2023-07-13T05:30:03;8.6;8.6;
56360;PMS7003;42611;51.132;13.588;2023-07-13T05:35:01;8.8;8.8;
56360;PMS7003;42611;51.132;13.588;2023-07-13T05:40:01;9.0;9.0;
56360;PMS7003;42611;51.132;13.588;2023-07-13T05:45:03;8.8;8.8;
56360;PMS7003;42611;51.132;13.588;2023-07-13T05:50:06;9.2;8.6;
56360;PMS7003;42611;51.132;13.588;2023-07-13T05:55:01;8.8;8.2;
56360;PMS7003;42611;51.132;13.588;2023-07-13T06:00:02;8.4;7.8;
56360;PMS7003;42611;51.132;13.588;2023-07-13T06:05:01;8.2;7.6;
56360;PMS7003;42611;51.132;13.588;2023-07-13T06:10:02;8.8;8.0;
56360;PMS7003;42611;51.132;13.588;2023-07-13T06:15:01;8.6;7.8;
56360;PMS7003;42611;51.132;13.588;2023-07-13T06:20:02;8.9;8.0;
56360;PMS7003;42611;51.132;13.588;2023-07-13T06:25:02;8.7;7.8;
56360;PMS7003;42611;51.132;13.588;2023-07-13T06:30:01;8.4;7.6;
56360;PMS7003;42611;51.132;13.588;2023-07-13T06:40:01;8.2;7.8;
56360;PMS7003;42611;51.132;13.588;2023-07-13T06:45:02;8.3;7.6;
56360;PMS7003;42611;51.132;13.588;2023-07-13T06:50:02;7.9;7.1;
56360;PMS7003;42611;51.132;13.588;2023-07-13T07:00:02;7.6;7.2;
56360;PMS7003;42611;51.132;13.588;2023-07-13T07:10:01;7.4;6.6;
56360;PMS7003;42611;51.132;13.588;2023-07-13T07:15:02;7.8;7.1;
56360;PMS7003;42611;51.132;13.588;2023-07-13T07:20:02;7.6;6.8;
56360;PMS7003;42611;51.132;13.588;2023-07-13T07:25:01;6.3;5.6;
56360;PMS7003;42611;51.132;13.588;2023-07-13T07:30:07;6.2;5.6;
56360;PMS7003;42611;51.132;13.588;2023-07-13T07:40:04;6.4;6.1;
56360;PMS7003;42611;51.132;13.588;2023-07-13T07:45:03;7.0;6.7;
56360;PMS7003;42611;51.132;13.588;2023-07-13T07:50:02;7.6;7.4;
56360;PMS7003;42611;51.132;13.588;2023-07-13T07:55:08;7.2;7.1;
56360;PMS7003;42611;51.132;13.588;2023-07-13T08:00:08;6.6;6.6;
56360;PMS7003;42611;51.132;13.588;2023-07-13T08:05:04;6.1;6.0;
56360;PMS7003;42611;51.132;13.588;2023-07-13T08:10:02;5.5;5.4;
56360;PMS7003;42611;51.132;13.588;2023-07-13T08:15:02;5.8;5.8;
56360;PMS7003;42611;51.132;13.588;2023-07-13T08:25:01;5.4;5.4;
56360;PMS7003;42611;51.132;13.588;2023-07-13T08:30:03;5.0;5.0;
56360;PMS7003;42611;51.132;13.588;2023-07-13T08:35:01;5.6;5.3;
56360;PMS7003;42611;51.132;13.588;2023-07-13T08:40:01;5.1;4.8;
56360;PMS7003;42611;51.132;13.588;2023-07-13T08:45:11;5.0;4.6;
56360;PMS7003;42611;51.132;13.588;2023-07-13T08:50:03;5.5;5.2;
56360;PMS7003;42611;51.132;13.588;2023-07-13T08:55:12;6.3;5.9;
56360;PMS7003;42611;51.132;13.588;2023-07-13T09:00:02;5.6;5.5;
56360;PMS7003;42611;51.132;13.588;2023-07-13T09:05:16;5.7;5.5;
56360;PMS7003;42611;51.132;13.588;2023-07-13T09:10:14;6.1;5.5;
56360;PMS7003;42611;51.132;13.588;2023-07-13T09:15:03;6.4;5.5;
56360;PMS7003;42611;51.132;13.588;2023-07-13T09:20:24;6.5;5.7;
56360;PMS7003;42611;51.132;13.588;2023-07-13T09:30:27;6.4;5.5;
56360;PMS7003;42611;51.132;13.588;2023-07-13T09:35:01;6.2;5.4;
56360;PMS7003;42611;51.132;13.588;2023-07-13T09:40:02;5.7;5.2;
56360;PMS7003;42611;51.132;13.588;2023-07-13T09:45:02;5.4;4.8;
56360;PMS7003;42611;51.132;13.588;2023-07-13T09:50:15;5.8;4.8;
56360;PMS7003;42611;51.132;13.588;2023-07-13T10:00:02;5.2;4.7;
56360;PMS7003;42611;51.132;13.588;2023-07-13T10:05:03;5.1;4.6;
56360;PMS7003;42611;51.132;13.588;2023-07-13T10:10:02;4.9;4.4;
56360;PMS7003;42611;51.132;13.588;2023-07-13T10:15:25;4.7;4.3;
56360;PMS7003;42611;51.132;13.588;2023-07-13T10:25:01;5.2;4.8;
56360;PMS7003;42611;51.132;13.588;2023-07-13T10:30:25;5.2;4.8;
56360;PMS7003;42611;51.132;13.588;2023-07-13T10:35:01;4.3;4.0;
56360;PMS7003;42611;51.132;13.588;2023-07-13T10:40:01;3.6;3.6;
56360;PMS7003;42611;51.132;13.588;2023-07-13T10:45:02;3.5;3.2;
56360;PMS7003;42611;51.132;13.588;2023-07-13T10:50:01;3.1;2.8;
56360;PMS7003;42611;51.132;13.588;2023-07-13T10:55:03;3.3;3.0;
56360;PMS7003;42611;51.132;13.588;2023-07-13T11:00:17;4.2;3.6;
56360;PMS7003;42611;51.132;13.588;2023-07-13T11:05:25;4.8;4.2;
56360;PMS7003;42611;51.132;13.588;2023-07-13T11:15:06;5.2;4.8;
56360;PMS7003;42611;51.132;13.588;2023-07-13T11:20:20;5.0;4.6;
56360;PMS7003;42611;51.132;13.588;2023-07-13T11:25:21;4.7;4.7;
56360;PMS7003;42611;51.132;13.588;2023-07-13T11:30:25;4.4;4.4;
56360;PMS7003;42611;51.132;13.588;2023-07-13T11:35:01;4.0;3.9;
56360;PMS7003;42611;51.132;13.588;2023-07-13T11:40:01;3.8;3.8;
56360;PMS7003;42611;51.132;13.588;2023-07-13T11:45:47;3.8;3.7;
56360;PMS7003;42611;51.132;13.588;2023-07-13T11:50:01;3.6;3.5;
56360;PMS7003;42611;51.132;13.588;2023-07-13T11:55:04;3.7;3.6;
56360;PMS7003;42611;51.132;13.588;2023-07-13T12:00:09;4.1;4.0;
56360;PMS7003;42611;51.132;13.588;2023-07-13T12:05:04;3.3;3.2;
56360;PMS7003;42611;51.132;13.588;2023-07-13T12:10:19;3.2;3.2;
56360;PMS7003;42611;51.132;13.588;2023-07-13T12:15:06;3.2;3.2;
56360;PMS7003;42611;51.132;13.588;2023-07-13T12:25:02;3.0;3.0;
56360;PMS7003;42611;51.132;13.588;2023-07-13T12:30:04;3.2;3.2;
56360;PMS7003;42611;51.132;13.588;2023-07-13T12:35:17;3.1;2.9;
56360;PMS7003;42611;51.132;13.588;2023-07-13T12:45:12;2.7;2.5;
56360;PMS7003;42611;51.132;13.588;2023-07-13T12:50:03;2.6;2.4;
56360;PMS7003;42611;51.132;13.588;2023-07-13T12:55:11;2.9;2.6;
56360;PMS7003;42611;51.132;13.588;2023-07-13T13:00:03;3.1;3.0;
56360;PMS7003;42611;51.132;13.588;2023-07-13T13:05:02;2.9;2.8;
56360;PMS7003;42611;51.132;13.588;2023-07-13T13:10:04;3.1;3.0;
56360;PMS7003;42611;51.132;13.588;2023-07-13T13:15:02;3.2;2.8;
56360;PMS7003;42611;51.132;13.588;2023-07-13T13:20:04;2.8;2.5;
56360;PMS7003;42611;51.132;13.588;2023-07-13T13:25:09;2.6;2.2;
56360;PMS7003;42611;51.132;13.588;2023-07-13T13:30:02;2.8;2.4;
56360;PMS7003;42611;51.132;13.588;2023-07-13T13:35:01;2.4;2.1;
56360;PMS7003;42611;51.132;13.588;2023-07-13T13:45:02;2.8;2.8;
56360;PMS7003;42611;51.132;13.588;2023-07-13T13:55:01;3.2;3.2;
56360;PMS7003;42611;51.132;13.588;2023-07-13T14:00:02;3.5;3.5;
56360;PMS7003;42611;51.132;13.588;2023-07-13T14:10:08;3.4;3.4;
56360;PMS7003;42611;51.132;13.588;2023-07-13T14:15:02;3.6;3.4;
56360;PMS7003;42611;51.132;13.588;2023-07-13T14:20:02;3.2;3.0;
56360;PMS7003;42611;51.132;13.588;2023-07-13T14:30:02;3.4;3.1;
56360;PMS7003;42611;51.132;13.588;2023-07-13T14:35:01;3.8;3.3;
56360;PMS7003;42611;51.132;13.588;2023-07-13T14:40:01;3.4;3.2;
56360;PMS7003;42611;51.132;13.588;2023-07-13T14:45:02;3.1;2.9;
56360;PMS7003;42611;51.132;13.588;2023-07-13T14:50:01;2.8;2.6;
56360;PMS7003;42611;51.132;13.588;2023-07-13T14:55:01;2.6;2.3;
56360;PMS7003;42611;51.132;13.588;2023-07-13T15:00:02;2.2;1.9;
56360;PMS7003;42611;51.132;13.588;2023-07-13T15:05:05;1.8;1.6;
56360;PMS7003;42611;51.132;13.588;2023-07-13T15:10:04;1.9;1.7;
56360;PMS7003;42611;51.132;13.588;2023-07-13T15:15:01;2.1;1.9;
56360;PMS7003;42611;51.132;13.588;2023-07-13T15:20:36;1.6;1.4;
56360;PMS7003;42611;51.132;13.588;2023-07-13T15:25:17;1.3;1.3;
56360;PMS7003;42611;51.132;13.588;2023-07-13T15:30:02;1.1;1.1;
56360;PMS7003;42611;51.132;13.588;2023-07-13T15:35:01;0.7;0.7;
56360;PMS7003;42611;51.132;13.588;2023-07-13T15:40:01;0.3;0.3;
56360;PMS7003;42611;51.132;13.588;2023-07-13T15:45:02;0.3;0.3;
56360;PMS7003;42611;51.132;13.588;2023-07-13T16:00:02;0.2;0.0;
56360;PMS7003;42611;51.132;13.588;2023-07-13T16:10:01;0.6;0.4;
56360;PMS7003;42611;51.132;13.588;2023-07-13T16:15:15;0.7;0.5;
56360;PMS7003;42611;51.132;13.588;2023-07-13T16:20:01;1.1;0.9;
56360;PMS7003;42611;51.132;13.588;2023-07-13T16:25:01;1.5;1.5;
56360;PMS7003;42611;51.132;13.588;2023-07-13T16:30:13;2.3;2.3;
56360;PMS7003;42611;51.132;13.588;2023-07-13T16:35:02;3.2;3.2;
56360;PMS7003;42611;51.132;13.588;2023-07-13T16:40:01;3.8;3.8;
56360;PMS7003;42611;51.132;13.588;2023-07-13T16:45:02;4.0;4.0;
56360;PMS7003;42611;51.132;13.588;2023-07-13T17:01:01;3.7;3.5;
56360;PMS7003;42611;51.132;13.588;2023-07-13T17:06:19;3.6;3.3;
56360;PMS7003;42611;51.132;13.588;2023-07-13T17:21:03;3.2;2.8;
56360;PMS7003;42611;51.132;13.588;2023-07-13T17:26:01;2.6;2.3;
56360;PMS7003;42611;51.132;13.588;2023-07-13T17:31:02;1.8;1.7;
56360;PMS7003;42611;51.132;13.588;2023-07-13T17:36:02;1.4;1.2;
56360;PMS7003;42611;51.132;13.588;2023-07-13T17:41:01;0.7;0.6;
56360;PMS7003;42611;51.132;13.588;2023-07-13T17:46:01;0.5;0.5;
56360;PMS7003;42611;51.132;13.588;2023-07-13T18:01:01;0.5;0.4;
56360;PMS7003;42611;51.132;13.588;2023-07-13T18:06:02;0.7;0.6;
56360;PMS7003;42611;51.132;13.588;2023-07-13T18:16:01;0.5;0.4;
56360;PMS7003;42611;51.132;13.588;2023-07-13T18:21:01;0.8;0.6;
56360;PMS7003;42611;51.132;13.588;2023-07-13T18:26:02;1.5;1.0;
56360;PMS7003;42611;51.132;13.588;2023-07-13T18:31:01;1.9;1.0;
56360;PMS7003;42611;51.132;13.588;2023-07-13T18:36:02;2.0;1.2;
56360;PMS7003;42611;51.132;13.588;2023-07-13T18:46:03;1.9;1.1;
56360;PMS7003;42611;51.132;13.588;2023-07-13T18:51:01;1.5;1.2;
56360;PMS7003;42611;51.132;13.588;2023-07-13T18:56:01;2.0;1.9;
56360;PMS7003;42611;51.132;13.588;2023-07-13T19:01:01;3.3;2.9;
56360;PMS7003;42611;51.132;13.588;2023-07-13T19:06:03;4.1;3.7;
56360;PMS7003;42611;51.132;13.588;2023-07-13T19:11:01;4.3;3.9;
56360;PMS7003;42611;51.132;13.588;2023-07-13T19:17:01;4.1;3.7;
56360;PMS7003;42611;51.132;13.588;2023-07-13T19:22:01;3.2;2.9;
56360;PMS7003;42611;51.132;13.588;2023-07-13T19:27:01;1.8;1.8;
56360;PMS7003;42611;51.132;13.588;2023-07-13T19:32:01;1.4;1.4;
56360;PMS7003;42611;51.132;13.588;2023-07-13T19:42:11;1.6;1.6;
56360;PMS7003;42611;51.132;13.588;2023-07-13T19:47:07;2.8;2.8;
56360;PMS7003;42611;51.132;13.588;2023-07-13T19:52:02;3.7;3.7;
56360;PMS7003;42611;51.132;13.588;2023-07-13T19:57:01;4.2;4.2;
56360;PMS7003;42611;51.132;13.588;2023-07-13T20:02:02;4.7;4.4;
56360;PMS7003;42611;51.132;13.588;2023-07-13T20:07:08;5.0;4.6;
56360;PMS7003;42611;51.132;13.588;2023-07-13T20:12:01;4.7;4.1;
56360;PMS7003;42611;51.132;13.588;2023-07-13T20:17:19;4.3;3.5;
56360;PMS7003;42611;51.132;13.588;2023-07-13T20:22:02;4.4;3.6;
56360;PMS7003;42611;51.132;13.588;2023-07-13T20:27:02;4.1;3.6;
56360;PMS7003;42611;51.132;13.588;2023-07-13T20:32:07;4.3;3.6;
56360;PMS7003;42611;51.132;13.588;2023-07-13T20:42:01;3.7;3.6;
56360;PMS7003;42611;51.132;13.588;2023-07-13T20:47:01;2.9;2.7;
56360;PMS7003;42611;51.132;13.588;2023-07-13T20:52:01;2.8;2.7;
56360;PMS7003;42611;51.132;13.588;2023-07-13T20:57:01;2.6;2.6;
56360;PMS7003;42611;51.132;13.588;2023-07-13T21:02:02;2.0;2.0;
56360;PMS7003;42611;51.132;13.588;2023-07-13T21:07:01;2.5;2.5;
56360;PMS7003;42611;51.132;13.588;2023-07-13T21:12:01;3.2;3.2;
56360;PMS7003;42611;51.132;13.588;2023-07-13T21:27:02;3.1;3.0;
56360;PMS7003;42611;51.132;13.588;2023-07-13T21:32:01;3.2;2.8;
56360;PMS7003;42611;51.132;13.588;2023-07-13T21:47:01;3.4;3.0;
56360;PMS7003;42611;51.132;13.588;2023-07-13T21:52:02;3.6;3.2;
56360;PMS7003;42611;51.132;13.588;2023-07-13T21:57:01;3.4;3.4;
56360;PMS7003;42611;51.132;13.588;2023-07-13T22:02:01;3.3;3.2;
56360;PMS7003;42611;51.132;13.588;2023-07-13T22:07:02;3.5;3.4;
56360;PMS7003;42611;51.132;13.588;2023-07-13T22:13:02;3.3;3.2;
56360;PMS7003;42611;51.132;13.588;2023-07-13T22:18:05;3.1;3.0;
56360;PMS7003;42611;51.132;13.588;2023-07-13T22:23:07;2.9;2.8;
56360;PMS7003;42611;51.132;13.588;2023-07-13T22:28:02;3.0;3.0;
56360;PMS7003;42611;51.132;13.588;2023-07-13T22:38:01;3.2;3.0;
56360;PMS7003;42611;51.132;13.588;2023-07-13T22:43:04;3.5;3.3;
56360;PMS7003;42611;51.132;13.588;2023-07-13T22:48:01;4.1;3.9;
56360;PMS7003;42611;51.132;13.588;2023-07-13T22:58:01;3.9;3.9;
56360;PMS7003;42611;51.132;13.588;2023-07-13T23:03:01;4.2;4.2;
56360;PMS7003;42611;51.132;13.588;2023-07-13T23:08:01;4.1;4.1;
56360;PMS7003;42611;51.132;13.588;2023-07-13T23:13:01;3.8;3.8;
56360;PMS7003;42611;51.132;13.588;2023-07-13T23:23:02;4.0;4.0;
56360;PMS7003;42611;51.132;13.588;2023-07-13T23:28:01;3.9;3.8;
56360;PMS7003;42611;51.132;13.588;2023-07-13T23:33:17;4.2;4.2;
56360;PMS7003;42611;51.132;13.588;2023-07-13T23:38:01;4.4;4.2;
56360;PMS7003;42611;51.132;13.588;2023-07-13T23:48:01;4.0;3.8;
